Time;durP1;ratioP1;P1;durP2;ratioP2;P2;SDS_P1;SDS_P2;PMS_P1;PMS_P2;Temp;Humidity;BMP_temperature;BMP_pressure;BME280_temperature;BME280_humidity;BME280_pressure;Samples;Min_cycle;Max_cycle;Signal;HPM_P1;HPM_P2
2023/09/28 00:00:39;;;;;;;0.10;0.10;;;;;;;;;;4809920;29;20099;-86
2023/09/28 00:03:10;;;;;;;0.10;0.10;;;;;;;;;;4809384;29;20046;-86
2023/09/28 00:05:36;;;;;;;0.10;0.10;;;;;;;;;;4809184;29;20046;-86
2023/09/28 00:08:02;;;;;;;0.10;0.10;;;;;;;;;;4809380;29;20070;-86
2023/09/28 00:10:30;;;;;;;0.10;0.10;;;;;;;;;;4825442;29;20148;-86
2023/09/28 00:12:56;;;;;;;0.10;0.10;;;;;;;;;;4794365;29;20042;-86
2023/09/28 00:15:22;;;;;;;0.10;0.10;;;;;;;;;;4824164;29;20057;-86
2023/09/28 00:17:48;;;;;;;0.10;0.10;;;;;;;;;;4824315;29;20043;-86
2023/09/28 00:20:19;;;;;;;0.20;0.20;;;;;;;;;;4809341;29;20050;-87
2023/09/28 00:22:45;;;;;;;0.20;0.20;;;;;;;;;;4824378;29;20087;-86
2023/09/28 00:25:11;;;;;;;0.10;0.10;;;;;;;;;;4809132;29;20050;-86
2023/09/28 00:27:45;;;;;;;0.10;0.10;;;;;;;;;;4809117;29;20145;-86
2023/09/28 00:30:19;;;;;;;0.10;0.10;;;;;;;;;;4809736;29;20349;-86
2023/09/28 00:32:47;;;;;;;0.10;0.10;;;;;;;;;;4825797;29;20103;-86
2023/09/28 00:35:13;;;;;;;0.10;0.10;;;;;;;;;;4808981;29;20050;-86
2023/09/28 00:37:39;;;;;;;0.10;0.10;;;;;;;;;;4823536;29;20046;-86
2023/09/28 00:40:16;;;;;;;0.10;0.10;;;;;;;;;;4823775;29;20038;-87
2023/09/28 00:42:42;;;;;;;0.10;0.10;;;;;;;;;;4808583;29;20043;-85
2023/09/28 00:45:08;;;;;;;0.10;0.10;;;;;;;;;;4793840;29;20408;-86
2023/09/28 00:47:35;;;;;;;0.10;0.10;;;;;;;;;;4823802;29;20080;-87
2023/09/28 00:50:03;;;;;;;0.20;0.20;;;;;;;;;;4823513;29;20050;-86
2023/09/28 00:52:30;;;;;;;0.10;0.10;;;;;;;;;;4808899;29;20054;-86
2023/09/28 00:54:56;;;;;;;0.13;0.13;;;;;;;;;;4808647;29;20051;-86
2023/09/28 00:57:22;;;;;;;0.20;0.20;;;;;;;;;;4823216;29;20046;-86
2023/09/28 00:59:48;;;;;;;0.10;0.10;;;;;;;;;;4808356;29;20053;-86
2023/09/28 01:02:14;;;;;;;0.20;0.20;;;;;;;;;;4823765;29;20050;-87
2023/09/28 01:04:41;;;;;;;0.13;0.13;;;;;;;;;;4808450;29;20050;-87
2023/09/28 01:07:08;;;;;;;0.10;0.10;;;;;;;;;;4808186;29;20513;-87
2023/09/28 01:09:34;;;;;;;0.10;0.10;;;;;;;;;;4824506;29;20061;-86
2023/09/28 01:12:01;;;;;;;0.10;0.10;;;;;;;;;;4808288;29;20128;-86
2023/09/28 01:14:27;;;;;;;0.10;0.10;;;;;;;;;;4807949;29;20050;-86
2023/09/28 01:16:53;;;;;;;0.10;0.10;;;;;;;;;;4823068;29;20050;-86
2023/09/28 01:19:19;;;;;;;0.10;0.10;;;;;;;;;;4823482;29;20471;-86
2023/09/28 01:21:45;;;;;;;0.17;0.17;;;;;;;;;;4823133;29;20567;-86
2023/09/28 01:24:11;;;;;;;0.10;0.10;;;;;;;;;;4822725;29;20073;-86
2023/09/28 01:26:37;;;;;;;0.15;0.15;;;;;;;;;;4807933;29;20071;-86
2023/09/28 01:29:03;;;;;;;0.10;0.10;;;;;;;;;;4807516;29;20086;-86
2023/09/28 01:31:29;;;;;;;0.10;0.10;;;;;;;;;;4824166;29;20054;-86
2023/09/28 01:33:55;;;;;;;0.20;0.20;;;;;;;;;;4823966;29;20516;-86
2023/09/28 01:36:22;;;;;;;0.10;0.10;;;;;;;;;;4822728;29;20072;-86
2023/09/28 01:38:49;;;;;;;0.10;0.10;;;;;;;;;;4822794;29;20043;-87
2023/09/28 01:41:15;;;;;;;0.10;0.10;;;;;;;;;;4807745;29;20395;-87
2023/09/28 01:43:41;;;;;;;0.20;0.20;;;;;;;;;;4807607;29;20415;-86
2023/09/28 01:46:11;;;;;;;0.15;0.15;;;;;;;;;;4822692;29;20054;-86
2023/09/28 01:48:37;;;;;;;0.20;0.20;;;;;;;;;;4822582;29;20064;-85
2023/09/28 01:51:03;;;;;;;0.10;0.10;;;;;;;;;;4822568;29;20050;-85
2023/09/28 01:53:29;;;;;;;0.10;0.10;;;;;;;;;;4807292;29;20525;-85
2023/09/28 01:55:59;;;;;;;0.20;0.20;;;;;;;;;;4822590;29;20518;-85
2023/09/28 01:58:26;;;;;;;0.10;0.10;;;;;;;;;;4807251;29;20130;-85
2023/09/28 02:00:52;;;;;;;0.15;0.15;;;;;;;;;;4807619;29;20099;-85
2023/09/28 02:03:18;;;;;;;0.10;0.10;;;;;;;;;;4823792;29;20133;-85
2023/09/28 02:05:44;;;;;;;0.10;0.10;;;;;;;;;;4822346;29;20061;-85
2023/09/28 02:08:10;;;;;;;0.10;0.10;;;;;;;;;;4822278;29;20061;-85
2023/09/28 02:10:36;;;;;;;0.10;0.10;;;;;;;;;;4822636;29;20054;-85
2023/09/28 02:13:04;;;;;;;0.10;0.10;;;;;;;;;;4822643;29;20411;-85
2023/09/28 02:15:30;;;;;;;0.10;0.10;;;;;;;;;;4822437;29;20543;-85
2023/09/28 02:17:56;;;;;;;0.10;0.10;;;;;;;;;;4822221;29;20509;-86
2023/09/28 02:20:22;;;;;;;0.13;0.13;;;;;;;;;;4822468;29;20428;-85
2023/09/28 02:22:50;;;;;;;0.10;0.10;;;;;;;;;;4822422;29;20042;-85
2023/09/28 02:25:26;;;;;;;0.10;0.10;;;;;;;;;;4807243;29;20499;-85
2023/09/28 02:27:52;;;;;;;0.10;0.10;;;;;;;;;;4807129;29;20069;-85
2023/09/28 02:30:19;;;;;;;0.10;0.10;;;;;;;;;;4792146;29;20175;-85
2023/09/28 02:32:46;;;;;;;0.10;0.10;;;;;;;;;;4807330;29;20050;-85
2023/09/28 02:35:14;;;;;;;0.10;0.10;;;;;;;;;;4822229;29;20470;-86
2023/09/28 02:37:41;;;;;;;0.10;0.10;;;;;;;;;;4807151;29;20495;-85
2023/09/28 02:40:08;;;;;;;0.10;0.10;;;;;;;;;;4807149;29;20103;-86
2023/09/28 02:42:34;;;;;;;0.10;0.10;;;;;;;;;;4825502;29;20487;-86
2023/09/28 02:45:00;;;;;;;0.10;0.10;;;;;;;;;;4825542;29;20054;-86
2023/09/28 02:47:29;;;;;;;0.20;0.20;;;;;;;;;;4810950;29;20403;-85
2023/09/28 02:49:57;;;;;;;0.32;0.32;;;;;;;;;;4825879;29;20121;-86
2023/09/28 02:52:23;;;;;;;0.10;0.10;;;;;;;;;;4810810;29;20058;-86
2023/09/28 02:54:49;;;;;;;0.10;0.10;;;;;;;;;;4825422;29;20098;-86
2023/09/28 02:57:15;;;;;;;0.20;0.20;;;;;;;;;;4825374;29;20110;-86
2023/09/28 02:59:41;;;;;;;0.10;0.10;;;;;;;;;;4825294;29;20104;-86
2023/09/28 03:02:09;;;;;;;0.10;0.10;;;;;;;;;;4825761;29;20054;-86
2023/09/28 03:04:35;;;;;;;0.10;0.10;;;;;;;;;;4810804;29;20058;-86
2023/09/28 03:07:02;;;;;;;0.20;0.20;;;;;;;;;;4825479;29;20057;-86
2023/09/28 03:09:28;;;;;;;0.10;0.10;;;;;;;;;;4825161;29;20062;-86
2023/09/28 03:11:54;;;;;;;0.10;0.10;;;;;;;;;;4810387;29;20061;-86
2023/09/28 03:14:20;;;;;;;0.10;0.10;;;;;;;;;;4810084;29;20046;-86
2023/09/28 03:16:46;;;;;;;0.30;0.30;;;;;;;;;;4810191;29;20123;-86
2023/09/28 03:19:12;;;;;;;0.10;0.10;;;;;;;;;;4825238;29;20052;-87
2023/09/28 03:21:39;;;;;;;0.10;0.10;;;;;;;;;;4824868;29;20078;-86
2023/09/28 03:24:08;;;;;;;0.10;0.10;;;;;;;;;;4810275;29;20149;-86
2023/09/28 03:26:34;;;;;;;0.10;0.10;;;;;;;;;;4824811;29;20133;-86
2023/09/28 03:29:00;;;;;;;0.10;0.10;;;;;;;;;;4824794;29;20066;-86
2023/09/28 03:31:27;;;;;;;0.10;0.10;;;;;;;;;;4810041;29;20106;-87
2023/09/28 03:33:54;;;;;;;0.10;0.10;;;;;;;;;;4824848;29;20046;-86
2023/09/28 03:36:20;;;;;;;0.10;0.10;;;;;;;;;;4794725;29;20051;-86
2023/09/28 03:38:47;;;;;;;0.10;0.10;;;;;;;;;;4825004;29;20046;-86
2023/09/28 03:41:13;;;;;;;0.10;0.10;;;;;;;;;;4824600;29;20498;-86
2023/09/28 03:43:39;;;;;;;0.10;0.10;;;;;;;;;;4824636;29;20046;-86
2023/09/28 03:46:05;;;;;;;0.10;0.10;;;;;;;;;;4809807;29;20546;-86
2023/09/28 03:48:31;;;;;;;0.10;0.10;;;;;;;;;;4824511;29;20611;-86
2023/09/28 03:50:57;;;;;;;0.10;0.10;;;;;;;;;;4794693;29;20054;-85
2023/09/28 03:53:24;;;;;;;0.10;0.10;;;;;;;;;;4824296;29;20046;-86
2023/09/28 03:55:50;;;;;;;0.20;0.20;;;;;;;;;;4824248;29;20046;-86
2023/09/28 03:58:16;;;;;;;0.30;0.30;;;;;;;;;;4809367;29;20074;-87
2023/09/28 04:00:42;;;;;;;0.10;0.10;;;;;;;;;;4824115;29;20053;-85
2023/09/28 04:03:08;;;;;;;0.10;0.10;;;;;;;;;;4824790;29;20518;-86
2023/09/28 04:05:34;;;;;;;0.10;0.10;;;;;;;;;;4794374;29;20050;-86
2023/09/28 04:08:01;;;;;;;0.10;0.10;;;;;;;;;;4825529;29;20042;-85
2023/09/28 04:10:27;;;;;;;0.10;0.10;;;;;;;;;;4809637;29;20081;-85
2023/09/28 04:12:53;;;;;;;0.20;0.20;;;;;;;;;;4825204;29;20043;-86
2023/09/28 04:15:19;;;;;;;0.10;0.10;;;;;;;;;;4809116;29;20395;-85
2023/09/28 04:17:45;;;;;;;0.15;0.15;;;;;;;;;;4809002;29;20207;-85
2023/09/28 04:20:12;;;;;;;0.10;0.10;;;;;;;;;;4825406;29;20110;-85
2023/09/28 04:22:38;;;;;;;0.20;0.20;;;;;;;;;;4824031;29;20081;-85
2023/09/28 04:25:05;;;;;;;0.10;0.10;;;;;;;;;;4794000;29;20043;-86
2023/09/28 04:27:31;;;;;;;0.10;0.10;;;;;;;;;;4808766;29;20070;-86
2023/09/28 04:29:57;;;;;;;0.10;0.10;;;;;;;;;;4824158;29;20054;-86
2023/09/28 04:32:23;;;;;;;0.10;0.10;;;;;;;;;;4808790;29;20137;-86
2023/09/28 04:34:50;;;;;;;0.20;0.20;;;;;;;;;;4808942;29;20055;-85
2023/09/28 04:37:16;;;;;;;0.10;0.10;;;;;;;;;;4823600;29;20054;-85
2023/09/28 04:39:44;;;;;;;0.20;0.20;;;;;;;;;;4823787;29;20047;-86
2023/09/28 04:42:10;;;;;;;0.10;0.10;;;;;;;;;;4823702;29;20088;-85
2023/09/28 04:44:36;;;;;;;0.10;0.10;;;;;;;;;;4808858;29;20368;-86
2023/09/28 04:47:02;;;;;;;0.10;0.10;;;;;;;;;;4823764;29;20487;-84
2023/09/28 04:49:28;;;;;;;0.10;0.10;;;;;;;;;;4824927;29;20054;-86
2023/09/28 04:51:55;;;;;;;0.10;0.10;;;;;;;;;;4823434;29;20054;-85
2023/09/28 04:54:21;;;;;;;0.10;0.10;;;;;;;;;;4823493;29;20050;-87
2023/09/28 04:56:47;;;;;;;0.10;0.10;;;;;;;;;;4808219;29;20053;-86
2023/09/28 04:59:13;;;;;;;0.30;0.20;;;;;;;;;;4823321;29;20042;-86
2023/09/28 05:01:39;;;;;;;0.20;0.20;;;;;;;;;;4823625;29;20048;-86
2023/09/28 05:04:05;;;;;;;0.10;0.10;;;;;;;;;;4807776;29;20051;-86
2023/09/28 05:06:31;;;;;;;0.10;0.10;;;;;;;;;;4823458;29;20046;-86
2023/09/28 05:08:57;;;;;;;0.10;0.10;;;;;;;;;;4793338;29;20056;-86
2023/09/28 05:11:23;;;;;;;0.10;0.10;;;;;;;;;;4822989;29;20042;-86
2023/09/28 05:13:51;;;;;;;0.10;0.10;;;;;;;;;;4823014;29;20462;-86
2023/09/28 05:16:17;;;;;;;0.10;0.10;;;;;;;;;;4824235;29;20058;-86
2023/09/28 05:18:43;;;;;;;0.10;0.10;;;;;;;;;;4807841;29;20053;-86
2023/09/28 05:21:09;;;;;;;0.10;0.10;;;;;;;;;;4822815;29;20046;-86
2023/09/28 05:23:35;;;;;;;0.10;0.10;;;;;;;;;;4822882;29;20495;-87
2023/09/28 05:26:01;;;;;;;0.10;0.10;;;;;;;;;;4807842;29;20099;-87
2023/09/28 05:28:27;;;;;;;0.20;0.20;;;;;;;;;;4807900;29;20060;-87
2023/09/28 05:30:53;;;;;;;0.10;0.10;;;;;;;;;;4823332;29;20058;-86
2023/09/28 05:33:19;;;;;;;0.10;0.10;;;;;;;;;;4807731;29;20061;-88
2023/09/28 05:35:46;;;;;;;0.10;0.10;;;;;;;;;;4807908;29;20042;-88
2023/09/28 05:38:12;;;;;;;0.10;0.10;;;;;;;;;;4823529;29;20085;-89
2023/09/28 05:40:38;;;;;;;0.10;0.10;;;;;;;;;;4807953;29;20517;-88
2023/09/28 05:43:04;;;;;;;0.10;0.10;;;;;;;;;;4823276;29;20047;-89
2023/09/28 05:45:32;;;;;;;0.10;0.10;;;;;;;;;;4807562;29;20047;-87
2023/09/28 05:47:58;;;;;;;0.10;0.10;;;;;;;;;;4793027;29;20131;-87
2023/09/28 05:50:24;;;;;;;0.10;0.10;;;;;;;;;;4822620;29;20050;-87
2023/09/28 05:52:52;;;;;;;0.10;0.10;;;;;;;;;;4807602;29;20057;-88
2023/09/28 05:55:19;;;;;;;0.10;0.10;;;;;;;;;;4822765;29;20210;-87
2023/09/28 05:57:45;;;;;;;0.10;0.10;;;;;;;;;;4807541;29;20077;-88
2023/09/28 06:00:12;;;;;;;0.28;0.20;;;;;;;;;;4808160;29;20061;-89
2023/09/28 06:02:38;;;;;;;0.10;0.10;;;;;;;;;;4807809;29;20046;-90
2023/09/28 06:05:05;;;;;;;0.10;0.10;;;;;;;;;;4807628;29;20153;-89
2023/09/28 06:07:31;;;;;;;0.10;0.10;;;;;;;;;;4807644;29;20133;-90
2023/09/28 06:09:57;;;;;;;0.10;0.10;;;;;;;;;;4807655;29;20338;-89
2023/09/28 06:12:22;;;;;;;0.10;0.10;;;;;;;;;;4807726;29;20046;-89
2023/09/28 06:14:48;;;;;;;0.60;0.30;;;;;;;;;;4792052;29;20479;-90
2023/09/28 06:17:15;;;;;;;0.10;0.10;;;;;;;;;;4805710;29;20042;-89
2023/09/28 06:19:43;;;;;;;0.10;0.10;;;;;;;;;;4822424;29;20065;-89
2023/09/28 06:22:09;;;;;;;0.10;0.10;;;;;;;;;;4791818;29;20130;-89
2023/09/28 06:24:36;;;;;;;0.10;0.10;;;;;;;;;;4822428;29;20487;-90
2023/09/28 06:27:02;;;;;;;0.10;0.10;;;;;;;;;;4803764;29;20504;-89
2023/09/28 06:29:31;;;;;;;0.17;0.17;;;;;;;;;;4803740;29;20093;-92
2023/09/28 06:32:00;;;;;;;1.38;0.30;;;;;;;;;;4788934;29;20419;-90
2023/09/28 06:34:26;;;;;;;0.10;0.10;;;;;;;;;;4803753;29;20137;-90
2023/09/28 06:36:53;;;;;;;0.10;0.10;;;;;;;;;;4816722;29;20133;-91
2023/09/28 06:39:19;;;;;;;0.10;0.10;;;;;;;;;;4837326;29;20115;-90
2023/09/28 06:41:45;;;;;;;0.10;0.10;;;;;;;;;;4803713;29;20380;-89
2023/09/28 06:44:11;;;;;;;0.10;0.10;;;;;;;;;;4805101;29;20050;-87
2023/09/28 06:46:37;;;;;;;0.10;0.10;;;;;;;;;;4816837;29;20465;-90
2023/09/28 06:49:06;;;;;;;0.10;0.10;;;;;;;;;;4815160;29;20050;-89
2023/09/28 06:51:32;;;;;;;0.20;0.20;;;;;;;;;;4798561;29;20046;-90
2023/09/28 06:53:59;;;;;;;0.10;0.10;;;;;;;;;;4837067;29;20370;-90
2023/09/28 06:56:26;;;;;;;0.10;0.10;;;;;;;;;;4822351;29;20046;-88
2023/09/28 06:58:52;;;;;;;0.10;0.10;;;;;;;;;;4807370;29;20047;-87
2023/09/28 07:01:18;;;;;;;0.10;0.10;;;;;;;;;;4819049;29;20058;-87
2023/09/28 07:03:45;;;;;;;0.10;0.10;;;;;;;;;;4819178;29;20130;-86
2023/09/28 07:06:12;;;;;;;0.10;0.10;;;;;;;;;;4799316;29;20139;-89
2023/09/28 07:08:38;;;;;;;0.10;0.10;;;;;;;;;;4803864;29;20566;-87
2023/09/28 07:11:04;;;;;;;0.10;0.10;;;;;;;;;;4801223;29;20074;-87
2023/09/28 07:13:30;;;;;;;0.10;0.10;;;;;;;;;;4808189;29;20118;-87
2023/09/28 07:15:59;;;;;;;0.10;0.10;;;;;;;;;;4821719;29;20046;-87
2023/09/28 07:18:25;;;;;;;0.10;0.10;;;;;;;;;;4821716;29;20046;-88
2023/09/28 07:20:52;;;;;;;0.30;0.30;;;;;;;;;;4806751;29;20049;-86
2023/09/28 07:23:17;;;;;;;0.20;0.20;;;;;;;;;;4821430;29;20130;-86
2023/09/28 07:25:44;;;;;;;0.20;0.20;;;;;;;;;;4806054;29;20459;-87
2023/09/28 07:28:11;;;;;;;0.15;0.15;;;;;;;;;;4824529;29;20054;-87
2023/09/28 07:30:36;;;;;;;0.13;0.13;;;;;;;;;;4809959;29;20082;-87
2023/09/28 07:33:02;;;;;;;0.10;0.10;;;;;;;;;;4824892;29;20043;-87
2023/09/28 07:35:28;;;;;;;0.10;0.10;;;;;;;;;;4810041;29;20074;-88
2023/09/28 07:37:54;;;;;;;0.20;0.20;;;;;;;;;;4809907;29;20078;-88
2023/09/28 07:40:24;;;;;;;0.20;0.20;;;;;;;;;;4825084;29;20130;-87
2023/09/28 07:42:50;;;;;;;0.10;0.10;;;;;;;;;;4809584;29;20047;-87
2023/09/28 07:45:18;;;;;;;0.20;0.20;;;;;;;;;;4824804;29;20057;-87
2023/09/28 07:47:44;;;;;;;0.10;0.10;;;;;;;;;;4824828;29;20455;-88
2023/09/28 07:50:11;;;;;;;0.20;0.20;;;;;;;;;;4824942;29;20399;-87
2023/09/28 07:52:38;;;;;;;0.10;0.10;;;;;;;;;;4825892;29;20113;-87
2023/09/28 07:55:05;;;;;;;0.10;0.10;;;;;;;;;;4809585;29;20043;-86
2023/09/28 07:57:32;;;;;;;0.10;0.10;;;;;;;;;;4809795;29;20172;-85
2023/09/28 07:59:58;;;;;;;0.10;0.10;;;;;;;;;;4824387;29;20050;-85
2023/09/28 08:02:24;;;;;;;0.10;0.10;;;;;;;;;;4825590;29;20061;-84
2023/09/28 08:04:51;;;;;;;0.17;0.17;;;;;;;;;;4824426;29;20497;-87
2023/09/28 08:07:18;;;;;;;0.20;0.20;;;;;;;;;;4809294;29;20088;-86
2023/09/28 08:09:44;;;;;;;0.10;0.10;;;;;;;;;;4825555;29;20078;-85
2023/09/28 08:12:10;;;;;;;0.10;0.10;;;;;;;;;;4824353;29;20097;-86
2023/09/28 08:14:36;;;;;;;0.20;0.20;;;;;;;;;;4824220;29;20044;-87
2023/09/28 08:17:01;;;;;;;0.10;0.10;;;;;;;;;;4809240;29;20111;-85
2023/09/28 08:19:27;;;;;;;0.30;0.30;;;;;;;;;;4824526;29;20054;-85
2023/09/28 08:21:53;;;;;;;0.20;0.20;;;;;;;;;;4809228;29;20050;-86
2023/09/28 08:24:19;;;;;;;0.20;0.20;;;;;;;;;;4824321;29;20402;-85
2023/09/28 08:26:45;;;;;;;0.10;0.10;;;;;;;;;;4824032;29;20060;-85
2023/09/28 08:29:12;;;;;;;0.10;0.10;;;;;;;;;;4824443;29;20492;-85
2023/09/28 08:31:39;;;;;;;0.20;0.20;;;;;;;;;;4825403;29;20050;-85
2023/09/28 08:34:05;;;;;;;0.20;0.20;;;;;;;;;;4825298;29;20057;-86
2023/09/28 08:36:32;;;;;;;0.20;0.20;;;;;;;;;;4825232;29;20340;-87
2023/09/28 08:38:58;;;;;;;0.17;0.17;;;;;;;;;;4808050;29;20050;-86
2023/09/28 08:41:32;;;;;;;0.20;0.20;;;;;;;;;;4825247;29;20042;-85
2023/09/28 08:44:05;;;;;;;0.20;0.20;;;;;;;;;;4825058;29;20559;-86
2023/09/28 08:46:32;;;;;;;0.20;0.20;;;;;;;;;;4824177;29;20050;-85
2023/09/28 08:49:00;;;;;;;0.50;0.50;;;;;;;;;;4808849;29;20046;-85
2023/09/28 08:51:26;;;;;;;0.20;0.20;;;;;;;;;;4824013;29;20146;-85
2023/09/28 08:53:52;;;;;;;0.10;0.10;;;;;;;;;;4824066;29;20084;-87
2023/09/28 08:56:18;;;;;;;0.20;0.20;;;;;;;;;;4808527;29;20133;-85
2023/09/28 08:58:44;;;;;;;0.20;0.20;;;;;;;;;;4823768;29;20130;-86
2023/09/28 09:01:10;;;;;;;0.20;0.20;;;;;;;;;;4824091;29;20210;-86
2023/09/28 09:03:36;;;;;;;0.20;0.20;;;;;;;;;;4808558;29;20050;-85
2023/09/28 09:06:05;;;;;;;0.20;0.20;;;;;;;;;;4823760;29;20079;-86
2023/09/28 09:08:30;;;;;;;0.20;0.20;;;;;;;;;;4823669;29;20090;-87
2023/09/28 09:10:56;;;;;;;0.20;0.20;;;;;;;;;;4808547;29;20159;-86
2023/09/28 09:13:22;;;;;;;0.10;0.10;;;;;;;;;;4823375;29;20057;-85
2023/09/28 09:15:49;;;;;;;0.55;0.55;;;;;;;;;;4808023;29;20195;-87
2023/09/28 09:18:19;;;;;;;0.10;0.10;;;;;;;;;;4823562;29;20050;-87
2023/09/28 09:20:48;;;;;;;0.10;0.10;;;;;;;;;;4823559;29;20465;-86
2023/09/28 09:23:14;;;;;;;0.10;0.10;;;;;;;;;;4823388;29;20475;-86
2023/09/28 09:25:41;;;;;;;0.20;0.20;;;;;;;;;;4822914;29;20047;-86
2023/09/28 09:28:07;;;;;;;3.30;0.55;;;;;;;;;;4823249;29;20111;-87
2023/09/28 09:30:37;;;;;;;0.10;0.10;;;;;;;;;;4823122;29;20053;-88
2023/09/28 09:33:04;;;;;;;0.20;0.20;;;;;;;;;;4808453;29;20375;-87
2023/09/28 09:35:33;;;;;;;0.28;0.28;;;;;;;;;;4808049;29;20056;-86
2023/09/28 09:37:59;;;;;;;0.20;0.20;;;;;;;;;;4807669;29;20467;-87
2023/09/28 09:40:25;;;;;;;0.10;0.10;;;;;;;;;;4822999;29;20061;-86
2023/09/28 09:42:52;;;;;;;0.22;0.22;;;;;;;;;;4823019;29;20038;-87
2023/09/28 09:45:21;;;;;;;0.20;0.20;;;;;;;;;;4807749;29;20092;-89
2023/09/28 09:47:47;;;;;;;0.28;0.28;;;;;;;;;;4807431;29;20046;-87
2023/09/28 09:50:14;;;;;;;0.43;0.43;;;;;;;;;;4807723;29;20050;-86
2023/09/28 09:52:41;;;;;;;0.10;0.10;;;;;;;;;;4807591;29;20088;-87
2023/09/28 09:55:08;;;;;;;0.10;0.10;;;;;;;;;;4808584;29;20093;-87
2023/09/28 09:57:34;;;;;;;0.10;0.10;;;;;;;;;;4810198;29;20050;-87
2023/09/28 10:00:00;;;;;;;0.10;0.10;;;;;;;;;;4808916;29;20126;-89
2023/09/28 10:02:28;;;;;;;0.20;0.20;;;;;;;;;;4807495;29;20210;-88
2023/09/28 10:04:54;;;;;;;0.10;0.10;;;;;;;;;;4807570;29;20057;-88
2023/09/28 10:07:21;;;;;;;0.10;0.10;;;;;;;;;;4807604;29;20042;-90
2023/09/28 10:09:47;;;;;;;0.10;0.10;;;;;;;;;;4807632;29;20131;-86
2023/09/28 10:12:13;;;;;;;0.15;0.15;;;;;;;;;;4822514;29;20405;-85
2023/09/28 10:14:41;;;;;;;1.38;0.17;;;;;;;;;;4822420;29;20467;-88
2023/09/28 10:17:09;;;;;;;0.17;0.17;;;;;;;;;;4807385;29;20529;-86
2023/09/28 10:19:35;;;;;;;0.10;0.10;;;;;;;;;;4807320;29;20050;-86
2023/09/28 10:22:01;;;;;;;0.10;0.10;;;;;;;;;;4807073;29;20103;-85
2023/09/28 10:24:35;;;;;;;0.20;0.20;;;;;;;;;;4807070;29;20119;-84
2023/09/28 10:27:10;;;;;;;0.10;0.10;;;;;;;;;;4822101;29;20062;-84
2023/09/28 10:29:36;;;;;;;0.20;0.20;;;;;;;;;;4807436;29;20157;-84
2023/09/28 10:32:03;;;;;;;0.10;0.10;;;;;;;;;;4822230;29;20403;-86
2023/09/28 10:34:30;;;;;;;0.10;0.10;;;;;;;;;;4807152;29;20394;-87
2023/09/28 10:37:10;;;;;;;0.20;0.20;;;;;;;;;;4822048;29;20050;-87
2023/09/28 10:39:37;;;;;;;0.10;0.10;;;;;;;;;;4817169;29;20121;-84
2023/09/28 10:42:12;;;;;;;0.10;0.10;;;;;;;;;;4804002;29;20099;-86
2023/09/28 10:44:46;;;;;;;0.10;0.10;;;;;;;;;;4788646;29;20059;-84
2023/09/28 10:47:12;;;;;;;0.10;0.10;;;;;;;;;;4804002;29;20073;-84
2023/09/28 10:49:37;;;;;;;0.10;0.10;;;;;;;;;;4803885;29;20507;-84
2023/09/28 10:52:04;;;;;;;0.10;0.10;;;;;;;;;;4803898;29;20467;-84
2023/09/28 10:54:30;;;;;;;0.10;0.10;;;;;;;;;;4805050;29;20055;-85
2023/09/28 10:56:56;;;;;;;0.10;0.10;;;;;;;;;;4803777;29;20055;-85
2023/09/28 10:59:24;;;;;;;0.10;0.10;;;;;;;;;;4803781;29;20038;-85
2023/09/28 11:01:49;;;;;;;0.20;0.20;;;;;;;;;;4804691;29;20058;-86
2023/09/28 11:04:16;;;;;;;0.20;0.20;;;;;;;;;;4792516;29;20053;-86
2023/09/28 11:06:43;;;;;;;0.10;0.10;;;;;;;;;;4792661;29;20704;-85
2023/09/28 11:09:09;;;;;;;0.13;0.13;;;;;;;;;;4792466;29;20059;-86
2023/09/28 11:11:37;;;;;;;0.10;0.10;;;;;;;;;;4807097;29;20046;-87
2023/09/28 11:14:05;;;;;;;0.10;0.10;;;;;;;;;;4792130;29;20503;-87
2023/09/28 11:16:30;;;;;;;0.10;0.10;;;;;;;;;;4792379;29;20051;-87
2023/09/28 11:18:56;;;;;;;0.10;0.10;;;;;;;;;;4792559;29;20050;-87
2023/09/28 11:21:23;;;;;;;0.10;0.10;;;;;;;;;;4792580;29;20074;-86
2023/09/28 11:23:52;;;;;;;0.10;0.10;;;;;;;;;;4807019;29;20518;-87
2023/09/28 11:26:22;;;;;;;0.10;0.10;;;;;;;;;;4791895;29;20530;-87
2023/09/28 11:28:49;;;;;;;0.20;0.20;;;;;;;;;;4807691;29;20132;-86
2023/09/28 11:31:15;;;;;;;0.13;0.13;;;;;;;;;;4807576;29;20047;-86
2023/09/28 11:33:42;;;;;;;0.10;0.10;;;;;;;;;;4792281;29;20093;-86
2023/09/28 11:36:11;;;;;;;0.10;0.10;;;;;;;;;;4792042;29;20050;-86
2023/09/28 11:38:37;;;;;;;0.20;0.20;;;;;;;;;;4792487;29;20053;-86
2023/09/28 11:41:06;;;;;;;0.20;0.20;;;;;;;;;;4791657;29;20043;-86
2023/09/28 11:43:52;;;;;;;0.10;0.10;;;;;;;;;;4806952;29;20046;-87
2023/09/28 11:46:28;;;;;;;0.10;0.10;;;;;;;;;;4806617;29;20081;-89
2023/09/28 11:49:09;;;;;;;0.10;0.10;;;;;;;;;;4792197;29;20441;-88
2023/09/28 11:51:35;;;;;;;0.10;0.10;;;;;;;;;;4807197;29;20126;-87
2023/09/28 11:54:01;;;;;;;0.10;0.10;;;;;;;;;;4792079;29;20050;-86
2023/09/28 11:56:28;;;;;;;0.20;0.20;;;;;;;;;;4792167;29;20050;-87
2023/09/28 11:58:55;;;;;;;0.10;0.10;;;;;;;;;;4792488;29;20049;-86
2023/09/28 12:01:21;;;;;;;0.20;0.20;;;;;;;;;;4792017;29;20046;-86
2023/09/28 12:03:47;;;;;;;2.55;1.85;;;;;;;;;;4791661;29;20039;-86
2023/09/28 12:06:14;;;;;;;0.10;0.10;;;;;;;;;;4791856;29;20406;-87
2023/09/28 12:08:41;;;;;;;0.10;0.10;;;;;;;;;;4791631;29;20046;-85
2023/09/28 12:11:07;;;;;;;0.28;0.28;;;;;;;;;;4792205;29;20408;-86
2023/09/28 12:13:33;;;;;;;1.00;0.30;;;;;;;;;;4791728;29;20051;-87
2023/09/28 12:16:00;;;;;;;0.20;0.20;;;;;;;;;;4791341;29;20083;-86
2023/09/28 12:18:27;;;;;;;0.20;0.20;;;;;;;;;;4791596;29;20062;-85
2023/09/28 12:20:53;;;;;;;0.20;0.20;;;;;;;;;;4791741;29;20122;-85
2023/09/28 12:23:19;;;;;;;0.10;0.10;;;;;;;;;;4806400;29;20130;-85
2023/09/28 12:25:45;;;;;;;0.20;0.20;;;;;;;;;;4791186;29;20485;-85
2023/09/28 12:28:11;;;;;;;0.10;0.10;;;;;;;;;;4806168;29;20058;-85
2023/09/28 12:30:37;;;;;;;0.82;0.20;;;;;;;;;;4806280;29;20074;-86
2023/09/28 12:33:04;;;;;;;0.15;0.15;;;;;;;;;;4790973;29;20085;-86
2023/09/28 12:35:30;;;;;;;0.10;0.10;;;;;;;;;;4807391;29;20047;-86
2023/09/28 12:37:56;;;;;;;0.10;0.10;;;;;;;;;;4791099;29;20053;-87
2023/09/28 12:40:22;;;;;;;0.10;0.10;;;;;;;;;;4791006;29;20054;-85
2023/09/28 12:42:49;;;;;;;1.05;0.65;;;;;;;;;;4805587;29;20503;-85
2023/09/28 12:45:15;;;;;;;0.20;0.20;;;;;;;;;;4805524;29;20047;-85
2023/09/28 12:47:41;;;;;;;0.38;0.38;;;;;;;;;;4805771;29;20046;-85
2023/09/28 12:50:07;;;;;;;0.20;0.20;;;;;;;;;;4806856;29;20042;-85
2023/09/28 12:52:33;;;;;;;0.10;0.10;;;;;;;;;;4806829;29;20107;-86
2023/09/28 12:54:59;;;;;;;0.20;0.20;;;;;;;;;;4805664;29;20535;-86
2023/09/28 12:57:27;;;;;;;0.30;0.30;;;;;;;;;;4790446;29;20050;-86
2023/09/28 12:59:53;;;;;;;0.10;0.10;;;;;;;;;;4790493;29;20229;-86
2023/09/28 13:02:20;;;;;;;0.10;0.10;;;;;;;;;;4790352;29;20087;-85
2023/09/28 13:04:46;;;;;;;0.10;0.10;;;;;;;;;;4805302;29;20055;-86
2023/09/28 13:07:12;;;;;;;0.10;0.10;;;;;;;;;;4790482;29;20057;-86
2023/09/28 13:09:38;;;;;;;0.10;0.10;;;;;;;;;;4805220;29;20078;-86
2023/09/28 13:12:04;;;;;;;0.10;0.10;;;;;;;;;;4790192;29;20082;-86
2023/09/28 13:14:31;;;;;;;0.10;0.10;;;;;;;;;;4806262;29;20038;-85
2023/09/28 13:16:58;;;;;;;0.10;0.10;;;;;;;;;;4805184;29;20398;-88
2023/09/28 13:19:27;;;;;;;0.10;0.10;;;;;;;;;;4790078;29;20043;-86
2023/09/28 13:21:56;;;;;;;0.10;0.10;;;;;;;;;;4805644;29;20047;-86
2023/09/28 13:24:22;;;;;;;0.10;0.10;;;;;;;;;;4789448;29;20059;-86
2023/09/28 13:26:48;;;;;;;0.10;0.10;;;;;;;;;;4789731;29;20534;-86
2023/09/28 13:29:16;;;;;;;0.10;0.10;;;;;;;;;;4804967;29;20078;-89
2023/09/28 13:31:43;;;;;;;0.10;0.10;;;;;;;;;;4790382;29;20387;-89
2023/09/28 13:34:14;;;;;;;0.10;0.10;;;;;;;;;;4790480;29;20065;-88
2023/09/28 13:36:40;;;;;;;0.13;0.13;;;;;;;;;;4804796;29;20051;-88
2023/09/28 13:39:13;;;;;;;0.10;0.10;;;;;;;;;;4790034;29;20133;-88
2023/09/28 13:41:39;;;;;;;0.20;0.20;;;;;;;;;;4790704;29;20085;-88
2023/09/28 13:44:06;;;;;;;0.10;0.10;;;;;;;;;;4789584;29;20074;-87
2023/09/28 13:46:32;;;;;;;0.20;0.20;;;;;;;;;;4789736;29;20047;-88
2023/09/28 13:48:58;;;;;;;0.20;0.20;;;;;;;;;;4789737;29;20046;-87
2023/09/28 13:51:24;;;;;;;0.10;0.10;;;;;;;;;;4789949;29;20407;-87
2023/09/28 13:53:50;;;;;;;0.20;0.20;;;;;;;;;;4789841;29;20598;-88
2023/09/28 13:56:18;;;;;;;0.10;0.10;;;;;;;;;;4804491;29;20054;-86
2023/09/28 13:58:44;;;;;;;0.20;0.20;;;;;;;;;;4789732;29;20483;-88
2023/09/28 14:01:13;;;;;;;0.10;0.10;;;;;;;;;;4789521;29;20074;-87
2023/09/28 14:03:40;;;;;;;0.10;0.10;;;;;;;;;;4804225;29;20043;-87
2023/09/28 14:06:06;;;;;;;0.10;0.10;;;;;;;;;;4804212;29;20054;-88
2023/09/28 14:08:32;;;;;;;0.10;0.10;;;;;;;;;;4789505;29;20047;-87
2023/09/28 14:10:59;;;;;;;0.10;0.10;;;;;;;;;;4789242;29;20129;-87
2023/09/28 14:13:25;;;;;;;0.10;0.10;;;;;;;;;;4789672;29;20460;-86
2023/09/28 14:15:51;;;;;;;0.13;0.13;;;;;;;;;;4789015;29;20506;-88
2023/09/28 14:18:17;;;;;;;0.10;0.10;;;;;;;;;;4789272;29;20617;-88
2023/09/28 14:20:43;;;;;;;0.30;0.30;;;;;;;;;;4789308;29;20168;-90
2023/09/28 14:23:09;;;;;;;0.10;0.10;;;;;;;;;;4789549;29;20043;-89
2023/09/28 14:25:35;;;;;;;0.10;0.10;;;;;;;;;;4789638;29;20050;-89
2023/09/28 14:28:01;;;;;;;0.20;0.20;;;;;;;;;;4789513;29;20058;-90
2023/09/28 14:30:28;;;;;;;0.10;0.10;;;;;;;;;;4789579;29;20058;-88
2023/09/28 14:32:55;;;;;;;0.20;0.20;;;;;;;;;;4789081;29;20074;-88
2023/09/28 14:35:24;;;;;;;0.20;0.20;;;;;;;;;;4790543;29;20597;-91
2023/09/28 14:37:49;;;;;;;0.20;0.20;;;;;;;;;;4806270;29;20575;-90
2023/09/28 14:40:17;;;;;;;0.10;0.10;;;;;;;;;;4822375;29;20214;-89